sensor_id;sensor_type;location;lat;lon;timestamp;pressure;altitude;pressure_sealevel;temperature;humidity
79203;BME280;68630;42.748;23.278;2023-08-12T00:02:15;96059.99;;;16.02;67.11
79203;BME280;68630;42.748;23.278;2023-08-12T00:04:42;96058.25;;;15.97;67.26
79203;BME280;68630;42.748;23.278;2023-08-12T00:07:10;96051.27;;;15.86;67.60
79203;BME280;68630;42.748;23.278;2023-08-12T00:09:37;96057.68;;;15.89;67.40
79203;BME280;68630;42.748;23.278;2023-08-12T00:12:05;96056.12;;;15.86;67.31
79203;BME280;68630;42.748;23.278;2023-08-12T00:14:32;96059.76;;;15.81;67.36
79203;BME280;68630;42.748;23.278;2023-08-12T00:17:00;96048.53;;;15.96;66.79
79203;BME280;68630;42.748;23.278;2023-08-12T00:19:30;96051.09;;;16.01;66.40
79203;BME280;68630;42.748;23.278;2023-08-12T00:21:58;96048.70;;;15.80;66.99
79203;BME280;68630;42.748;23.278;2023-08-12T00:24:25;96047.91;;;15.74;67.15
79203;BME280;68630;42.748;23.278;2023-08-12T00:26:53;96050.20;;;15.55;67.98
79203;BME280;68630;42.748;23.278;2023-08-12T00:29:20;96052.55;;;15.68;67.21
79203;BME280;68630;42.748;23.278;2023-08-12T00:31:48;96048.85;;;15.69;67.12
79203;BME280;68630;42.748;23.278;2023-08-12T00:34:16;96048.85;;;15.69;67.10
79203;BME280;68630;42.748;23.278;2023-08-12T00:36:44;96047.36;;;15.43;67.81
79203;BME280;68630;42.748;23.278;2023-08-12T00:39:11;96052.73;;;15.57;67.17
79203;BME280;68630;42.748;23.278;2023-08-12T00:41:39;96049.94;;;15.48;67.62
79203;BME280;68630;42.748;23.278;2023-08-12T00:44:07;96055.38;;;15.52;67.15
79203;BME280;68630;42.748;23.278;2023-08-12T00:46:35;96056.20;;;15.39;67.65
79203;BME280;68630;42.748;23.278;2023-08-12T00:49:04;96050.55;;;15.42;67.56
79203;BME280;68630;42.748;23.278;2023-08-12T00:51:31;96045.79;;;15.26;68.16
79203;BME280;68630;42.748;23.278;2023-08-12T00:53:59;96050.50;;;14.91;69.08
79203;BME280;68630;42.748;23.278;2023-08-12T00:56:28;96043.31;;;15.15;68.04
79203;BME280;68630;42.748;23.278;2023-08-12T00:58:59;96041.21;;;14.99;68.92
79203;BME280;68630;42.748;23.278;2023-08-12T01:01:27;96033.17;;;14.99;68.79
79203;BME280;68630;42.748;23.278;2023-08-12T01:03:54;96034.75;;;14.92;69.23
79203;BME280;68630;42.748;23.278;2023-08-12T01:06:22;96027.52;;;15.02;68.79
79203;BME280;68630;42.748;23.278;2023-08-12T01:08:50;96029.92;;;15.05;68.79
79203;BME280;68630;42.748;23.278;2023-08-12T01:14:28;96031.00;;;15.22;68.21
79203;BME280;68630;42.748;23.278;2023-08-12T01:17:01;96033.84;;;15.34;67.78
79203;BME280;68630;42.748;23.278;2023-08-12T01:19:38;96024.09;;;15.33;67.59
79203;BME280;68630;42.748;23.278;2023-08-12T01:22:10;96025.60;;;15.32;67.77
79203;BME280;68630;42.748;23.278;2023-08-12T01:24:44;96028.86;;;15.26;67.83
79203;BME280;68630;42.748;23.278;2023-08-12T01:27:08;96028.34;;;15.12;68.46
79203;BME280;68630;42.748;23.278;2023-08-12T01:29:38;96028.48;;;15.11;68.59
79203;BME280;68630;42.748;23.278;2023-08-12T01:35:03;96028.41;;;15.16;67.94
79203;BME280;68630;42.748;23.278;2023-08-12T01:37:32;96032.34;;;14.98;68.52
79203;BME280;68630;42.748;23.278;2023-08-12T01:40:02;96024.98;;;15.01;68.31
79203;BME280;68630;42.748;23.278;2023-08-12T01:42:36;96031.78;;;14.95;68.60
79203;BME280;68630;42.748;23.278;2023-08-12T01:45:06;96032.31;;;15.08;67.79
79203;BME280;68630;42.748;23.278;2023-08-12T01:47:33;96026.02;;;15.13;67.47
79203;BME280;68630;42.748;23.278;2023-08-12T01:50:01;96023.41;;;15.08;67.65
79203;BME280;68630;42.748;23.278;2023-08-12T01:52:29;96027.08;;;15.16;67.44
79203;BME280;68630;42.748;23.278;2023-08-12T01:54:56;96032.77;;;15.17;67.43
79203;BME280;68630;42.748;23.278;2023-08-12T01:57:24;96034.61;;;15.17;67.32
79203;BME280;68630;42.748;23.278;2023-08-12T01:59:51;96029.35;;;15.11;67.56
79203;BME280;68630;42.748;23.278;2023-08-12T02:02:19;96037.80;;;15.16;67.31
79203;BME280;68630;42.748;23.278;2023-08-12T02:04:47;96038.78;;;15.15;67.42
79203;BME280;68630;42.748;23.278;2023-08-12T02:07:14;96034.38;;;15.24;67.31
79203;BME280;68630;42.748;23.278;2023-08-12T02:09:42;96031.63;;;15.06;67.82
79203;BME280;68630;42.748;23.278;2023-08-12T02:12:09;96035.73;;;15.14;67.30
79203;BME280;68630;42.748;23.278;2023-08-12T02:14:37;96042.09;;;14.90;67.97
79203;BME280;68630;42.748;23.278;2023-08-12T02:17:04;96043.39;;;14.86;68.06
79203;BME280;68630;42.748;23.278;2023-08-12T02:19:33;96030.08;;;14.94;67.58
79203;BME280;68630;42.748;23.278;2023-08-12T02:22:06;96024.00;;;14.68;68.76
79203;BME280;68630;42.748;23.278;2023-08-12T02:24:30;96026.35;;;14.38;69.73
79203;BME280;68630;42.748;23.278;2023-08-12T02:26:58;96021.69;;;14.69;68.61
79203;BME280;68630;42.748;23.278;2023-08-12T02:29:25;96033.19;;;14.36;69.75
79203;BME280;68630;42.748;23.278;2023-08-12T02:31:53;96028.44;;;14.05;71.02
79203;BME280;68630;42.748;23.278;2023-08-12T02:34:20;96032.55;;;14.19;70.41
79203;BME280;68630;42.748;23.278;2023-08-12T02:36:48;96033.36;;;14.00;70.86
79203;BME280;68630;42.748;23.278;2023-08-12T02:39:16;96031.34;;;14.08;70.30
79203;BME280;68630;42.748;23.278;2023-08-12T02:41:43;96035.63;;;14.04;70.24
79203;BME280;68630;42.748;23.278;2023-08-12T02:44:11;96038.08;;;13.92;70.68
79203;BME280;68630;42.748;23.278;2023-08-12T02:46:38;96034.70;;;13.90;70.82
79203;BME280;68630;42.748;23.278;2023-08-12T02:49:06;96043.44;;;13.92;70.47
79203;BME280;68630;42.748;23.278;2023-08-12T02:51:33;96048.72;;;13.88;70.55
79203;BME280;68630;42.748;23.278;2023-08-12T02:54:01;96044.71;;;13.88;70.80
79203;BME280;68630;42.748;23.278;2023-08-12T02:56:28;96043.84;;;13.88;70.92
79203;BME280;68630;42.748;23.278;2023-08-12T02:58:56;96046.38;;;13.89;71.18
79203;BME280;68630;42.748;23.278;2023-08-12T03:01:23;96046.11;;;13.92;71.16
79203;BME280;68630;42.748;23.278;2023-08-12T03:03:53;96044.45;;;13.76;71.71
79203;BME280;68630;42.748;23.278;2023-08-12T03:06:20;96053.34;;;13.86;71.22
79203;BME280;68630;42.748;23.278;2023-08-12T03:08:48;96051.83;;;13.93;70.94
79203;BME280;68630;42.748;23.278;2023-08-12T03:11:15;96055.32;;;13.84;71.34
79203;BME280;68630;42.748;23.278;2023-08-12T03:13:45;96058.52;;;13.93;71.04
79203;BME280;68630;42.748;23.278;2023-08-12T03:16:14;96059.22;;;14.05;70.34
79203;BME280;68630;42.748;23.278;2023-08-12T03:18:42;96063.80;;;13.99;70.71
79203;BME280;68630;42.748;23.278;2023-08-12T03:21:10;96058.95;;;13.98;70.54
79203;BME280;68630;42.748;23.278;2023-08-12T03:23:38;96052.46;;;14.01;70.60
79203;BME280;68630;42.748;23.278;2023-08-12T03:26:05;96055.89;;;13.78;71.50
79203;BME280;68630;42.748;23.278;2023-08-12T03:28:33;96062.44;;;13.89;71.13
79203;BME280;68630;42.748;23.278;2023-08-12T03:31:00;96061.77;;;13.97;71.07
79203;BME280;68630;42.748;23.278;2023-08-12T03:33:28;96060.13;;;14.00;70.79
79203;BME280;68630;42.748;23.278;2023-08-12T03:35:55;96059.86;;;14.03;70.48
79203;BME280;68630;42.748;23.278;2023-08-12T03:38:23;96062.77;;;14.05;70.53
79203;BME280;68630;42.748;23.278;2023-08-12T03:40:50;96064.05;;;13.86;71.40
79203;BME280;68630;42.748;23.278;2023-08-12T03:43:18;96068.81;;;14.08;70.86
79203;BME280;68630;42.748;23.278;2023-08-12T03:45:45;96073.42;;;14.50;69.42
79203;BME280;68630;42.748;23.278;2023-08-12T03:48:13;96073.52;;;15.07;67.55
79203;BME280;68630;42.748;23.278;2023-08-12T03:50:41;96070.47;;;15.53;65.56
79203;BME280;68630;42.748;23.278;2023-08-12T03:53:09;96068.11;;;16.06;64.13
79203;BME280;68630;42.748;23.278;2023-08-12T03:55:36;96068.91;;;16.52;62.46
79203;BME280;68630;42.748;23.278;2023-08-12T03:58:04;96069.65;;;17.25;60.48
79203;BME280;68630;42.748;23.278;2023-08-12T04:00:32;96068.00;;;17.92;58.23
79203;BME280;68630;42.748;23.278;2023-08-12T04:02:59;96065.63;;;18.65;55.88
79203;BME280;68630;42.748;23.278;2023-08-12T04:05:27;96072.39;;;19.14;54.63
79203;BME280;68630;42.748;23.278;2023-08-12T04:07:55;96073.93;;;19.69;52.87
79203;BME280;68630;42.748;23.278;2023-08-12T04:10:22;96073.42;;;20.44;51.10
79203;BME280;68630;42.748;23.278;2023-08-12T04:12:50;96065.94;;;21.20;49.21
79203;BME280;68630;42.748;23.278;2023-08-12T04:15:17;96075.45;;;21.54;48.23
79203;BME280;68630;42.748;23.278;2023-08-12T04:17:47;96073.20;;;21.23;48.75
79203;BME280;68630;42.748;23.278;2023-08-12T04:20:14;96071.98;;;20.88;49.20
79203;BME280;68630;42.748;23.278;2023-08-12T04:22:42;96074.03;;;21.24;48.54
79203;BME280;68630;42.748;23.278;2023-08-12T04:25:09;96082.80;;;21.94;47.19
79203;BME280;68630;42.748;23.278;2023-08-12T04:27:37;96083.11;;;21.95;46.80
79203;BME280;68630;42.748;23.278;2023-08-12T04:30:04;96083.30;;;22.49;45.79
79203;BME280;68630;42.748;23.278;2023-08-12T04:32:31;96076.80;;;22.97;44.96
79203;BME280;68630;42.748;23.278;2023-08-12T04:34:59;96083.45;;;23.05;44.68
79203;BME280;68630;42.748;23.278;2023-08-12T04:37:27;96084.11;;;22.96;45.03
79203;BME280;68630;42.748;23.278;2023-08-12T04:39:58;96078.41;;;23.13;44.86
79203;BME280;68630;42.748;23.278;2023-08-12T04:42:28;96081.08;;;23.73;43.81
79203;BME280;68630;42.748;23.278;2023-08-12T04:44:56;96077.87;;;24.16;42.70
79203;BME280;68630;42.748;23.278;2023-08-12T04:47:23;96074.20;;;24.43;42.07
79203;BME280;68630;42.748;23.278;2023-08-12T04:49:52;96079.66;;;24.74;41.90
79203;BME280;68630;42.748;23.278;2023-08-12T04:52:20;96081.60;;;24.94;41.31
79203;BME280;68630;42.748;23.278;2023-08-12T04:54:47;96079.21;;;25.21;40.53
79203;BME280;68630;42.748;23.278;2023-08-12T04:57:15;96073.02;;;24.97;41.12
79203;BME280;68630;42.748;23.278;2023-08-12T04:59:42;96073.02;;;24.97;41.12
79203;BME280;68630;42.748;23.278;2023-08-12T05:02:10;96083.20;;;25.72;39.60
79203;BME280;68630;42.748;23.278;2023-08-12T05:04:37;96076.84;;;26.12;38.42
79203;BME280;68630;42.748;23.278;2023-08-12T05:07:05;96085.47;;;26.31;38.40
79203;BME280;68630;42.748;23.278;2023-08-12T05:09:33;96082.36;;;26.44;38.07
79203;BME280;68630;42.748;23.278;2023-08-12T05:12:00;96079.53;;;26.48;38.37
79203;BME280;68630;42.748;23.278;2023-08-12T05:14:28;96080.88;;;26.77;37.77
79203;BME280;68630;42.748;23.278;2023-08-12T05:16:55;96080.88;;;26.77;37.80
79203;BME280;68630;42.748;23.278;2023-08-12T05:19:23;96083.44;;;26.43;38.38
79203;BME280;68630;42.748;23.278;2023-08-12T05:21:50;96091.87;;;26.80;37.62
79203;BME280;68630;42.748;23.278;2023-08-12T05:24:18;96085.39;;;27.28;37.03
79203;BME280;68630;42.748;23.278;2023-08-12T05:26:46;96091.69;;;27.89;36.24
79203;BME280;68630;42.748;23.278;2023-08-12T05:29:13;96087.80;;;28.12;35.50
79203;BME280;68630;42.748;23.278;2023-08-12T05:31:41;96087.80;;;27.78;35.53
79203;BME280;68630;42.748;23.278;2023-08-12T05:34:09;96086.73;;;27.54;36.19
79203;BME280;68630;42.748;23.278;2023-08-12T05:36:36;96087.84;;;28.52;34.72
79203;BME280;68630;42.748;23.278;2023-08-12T05:39:07;96088.59;;;28.68;34.28
79203;BME280;68630;42.748;23.278;2023-08-12T05:41:33;96092.17;;;28.99;33.76
79203;BME280;68630;42.748;23.278;2023-08-12T05:44:01;96092.45;;;29.51;32.31
79203;BME280;68630;42.748;23.278;2023-08-12T05:46:28;96091.59;;;28.30;35.80
79203;BME280;68630;42.748;23.278;2023-08-12T05:48:56;96089.74;;;27.71;36.79
79203;BME280;68630;42.748;23.278;2023-08-12T05:51:23;96094.34;;;27.04;37.36
79203;BME280;68630;42.748;23.278;2023-08-12T05:53:52;96088.25;;;27.40;36.98
79203;BME280;68630;42.748;23.278;2023-08-12T05:56:19;96090.05;;;27.37;36.54
79203;BME280;68630;42.748;23.278;2023-08-12T05:58:47;96090.72;;;27.01;37.50
79203;BME280;68630;42.748;23.278;2023-08-12T06:01:15;96080.17;;;28.24;35.11
79203;BME280;68630;42.748;23.278;2023-08-12T06:03:50;96076.77;;;27.75;36.38
79203;BME280;68630;42.748;23.278;2023-08-12T06:06:20;96082.16;;;28.35;34.99
79203;BME280;68630;42.748;23.278;2023-08-12T06:08:49;96078.55;;;27.88;35.12
79203;BME280;68630;42.748;23.278;2023-08-12T06:11:17;96079.01;;;28.99;33.69
79203;BME280;68630;42.748;23.278;2023-08-12T06:13:49;96082.84;;;28.88;33.86
79203;BME280;68630;42.748;23.278;2023-08-12T06:16:17;96074.33;;;29.74;32.78
79203;BME280;68630;42.748;23.278;2023-08-12T06:18:44;96075.54;;;29.66;32.90
79203;BME280;68630;42.748;23.278;2023-08-12T06:21:12;96070.33;;;29.67;32.45
79203;BME280;68630;42.748;23.278;2023-08-12T06:23:39;96071.19;;;29.92;32.47
79203;BME280;68630;42.748;23.278;2023-08-12T06:26:07;96065.12;;;29.33;32.51
79203;BME280;68630;42.748;23.278;2023-08-12T06:28:34;96065.89;;;29.10;32.76
79203;BME280;68630;42.748;23.278;2023-08-12T06:31:07;96065.92;;;31.41;29.48
79203;BME280;68630;42.748;23.278;2023-08-12T06:33:40;96068.45;;;29.14;32.71
79203;BME280;68630;42.748;23.278;2023-08-12T06:36:10;96065.05;;;31.52;29.44
79203;BME280;68630;42.748;23.278;2023-08-12T06:38:42;96056.23;;;32.67;27.64
79203;BME280;68630;42.748;23.278;2023-08-12T06:41:10;96055.48;;;33.93;26.30
79203;BME280;68630;42.748;23.278;2023-08-12T06:43:37;96059.59;;;35.20;25.00
79203;BME280;68630;42.748;23.278;2023-08-12T06:46:05;96053.64;;;34.62;25.04
79203;BME280;68630;42.748;23.278;2023-08-12T06:48:37;96057.70;;;35.23;24.28
79203;BME280;68630;42.748;23.278;2023-08-12T06:51:05;96061.05;;;35.89;23.29
79203;BME280;68630;42.748;23.278;2023-08-12T06:53:36;96055.76;;;36.11;23.35
79203;BME280;68630;42.748;23.278;2023-08-12T06:56:05;96050.81;;;35.36;23.75
79203;BME280;68630;42.748;23.278;2023-08-12T06:58:48;96043.59;;;34.38;25.20
79203;BME280;68630;42.748;23.278;2023-08-12T07:01:02;96045.59;;;33.65;26.26
79203;BME280;68630;42.748;23.278;2023-08-12T07:03:31;96040.50;;;33.82;26.29
79203;BME280;68630;42.748;23.278;2023-08-12T07:05:59;96041.38;;;33.55;26.43
79203;BME280;68630;42.748;23.278;2023-08-12T07:08:28;96037.76;;;35.21;25.09
79203;BME280;68630;42.748;23.278;2023-08-12T07:10:56;96043.44;;;33.08;27.43
79203;BME280;68630;42.748;23.278;2023-08-12T07:13:47;96044.33;;;30.98;30.77
79203;BME280;68630;42.748;23.278;2023-08-12T07:15:56;96037.19;;;31.48;29.61
79203;BME280;68630;42.748;23.278;2023-08-12T07:18:38;96040.66;;;33.67;26.64
79203;BME280;68630;42.748;23.278;2023-08-12T07:21:05;96039.17;;;35.26;24.56
79203;BME280;68630;42.748;23.278;2023-08-12T07:23:28;96044.15;;;35.88;23.64
79203;BME280;68630;42.748;23.278;2023-08-12T07:25:58;96038.88;;;34.33;25.82
79203;BME280;68630;42.748;23.278;2023-08-12T07:28:26;96042.97;;;34.23;25.80
79203;BME280;68630;42.748;23.278;2023-08-12T07:30:55;96042.52;;;35.41;24.20
79203;BME280;68630;42.748;23.278;2023-08-12T07:33:26;96037.70;;;36.36;23.28
79203;BME280;68630;42.748;23.278;2023-08-12T07:35:53;96041.12;;;35.41;23.82
79203;BME280;68630;42.748;23.278;2023-08-12T07:38:21;96033.27;;;36.96;21.81
79203;BME280;68630;42.748;23.278;2023-08-12T07:40:50;96038.39;;;36.70;22.46
79203;BME280;68630;42.748;23.278;2023-08-12T07:43:19;96028.91;;;36.79;22.10
79203;BME280;68630;42.748;23.278;2023-08-12T07:45:54;96028.11;;;35.70;23.34
79203;BME280;68630;42.748;23.278;2023-08-12T07:48:29;96022.40;;;34.57;24.36
79203;BME280;68630;42.748;23.278;2023-08-12T07:51:16;96028.11;;;35.26;23.52
79203;BME280;68630;42.748;23.278;2023-08-12T07:53:30;96021.48;;;33.50;25.76
79203;BME280;68630;42.748;23.278;2023-08-12T07:55:58;96011.80;;;34.33;24.42
79203;BME280;68630;42.748;23.278;2023-08-12T07:58:27;96017.54;;;35.02;23.75
79203;BME280;68630;42.748;23.278;2023-08-12T08:00:55;96010.29;;;36.30;22.25
79203;BME280;68630;42.748;23.278;2023-08-12T08:03:23;96004.68;;;36.43;21.72
79203;BME280;68630;42.748;23.278;2023-08-12T08:05:51;96005.91;;;34.77;23.80
79203;BME280;68630;42.748;23.278;2023-08-12T08:08:22;95996.34;;;36.48;22.44
79203;BME280;68630;42.748;23.278;2023-08-12T08:10:51;96008.48;;;37.09;21.68
79203;BME280;68630;42.748;23.278;2023-08-12T08:13:20;96007.89;;;36.73;21.99
79203;BME280;68630;42.748;23.278;2023-08-12T08:15:55;96002.09;;;35.40;22.99
79203;BME280;68630;42.748;23.278;2023-08-12T08:18:21;95997.28;;;36.25;22.09
79203;BME280;68630;42.748;23.278;2023-08-12T08:20:49;96003.03;;;33.56;24.26
79203;BME280;68630;42.748;23.278;2023-08-12T08:23:19;96004.27;;;34.97;23.14
79203;BME280;68630;42.748;23.278;2023-08-12T08:25:47;95996.23;;;36.00;22.40
79203;BME280;68630;42.748;23.278;2023-08-12T08:28:15;95995.69;;;37.51;20.27
79203;BME280;68630;42.748;23.278;2023-08-12T08:30:42;95992.31;;;38.39;19.60
79203;BME280;68630;42.748;23.278;2023-08-12T08:33:11;95988.14;;;37.88;19.76
79203;BME280;68630;42.748;23.278;2023-08-12T08:35:40;95994.06;;;38.32;19.43
79203;BME280;68630;42.748;23.278;2023-08-12T08:38:08;95993.35;;;39.08;18.75
79203;BME280;68630;42.748;23.278;2023-08-12T08:40:35;95997.68;;;39.52;18.44
79203;BME280;68630;42.748;23.278;2023-08-12T08:43:04;95989.53;;;38.82;19.46
79203;BME280;68630;42.748;23.278;2023-08-12T08:45:33;95987.38;;;40.69;17.80
79203;BME280;68630;42.748;23.278;2023-08-12T08:48:02;95984.48;;;39.58;18.54
79203;BME280;68630;42.748;23.278;2023-08-12T08:50:31;95976.94;;;38.68;19.07
79203;BME280;68630;42.748;23.278;2023-08-12T08:53:02;95975.07;;;37.89;20.71
79203;BME280;68630;42.748;23.278;2023-08-12T08:55:39;95971.98;;;37.63;20.12
79203;BME280;68630;42.748;23.278;2023-08-12T08:58:07;95976.33;;;39.28;18.68
79203;BME280;68630;42.748;23.278;2023-08-12T09:00:36;95975.83;;;40.87;17.44
79203;BME280;68630;42.748;23.278;2023-08-12T09:03:08;95972.02;;;41.53;17.05
79203;BME280;68630;42.748;23.278;2023-08-12T09:05:38;95959.65;;;38.90;19.54
79203;BME280;68630;42.748;23.278;2023-08-12T09:08:07;95963.87;;;39.40;18.76
79203;BME280;68630;42.748;23.278;2023-08-12T09:10:39;95962.11;;;38.73;18.77
79203;BME280;68630;42.748;23.278;2023-08-12T09:13:07;95963.88;;;39.23;18.03
79203;BME280;68630;42.748;23.278;2023-08-12T09:15:38;95959.46;;;40.02;17.47
79203;BME280;68630;42.748;23.278;2023-08-12T09:18:07;95948.29;;;38.46;19.19
79203;BME280;68630;42.748;23.278;2023-08-12T09:20:35;95954.11;;;38.69;18.96
79203;BME280;68630;42.748;23.278;2023-08-12T09:23:07;95954.91;;;39.10;18.26
79203;BME280;68630;42.748;23.278;2023-08-12T09:25:42;95950.33;;;38.16;18.88
79203;BME280;68630;42.748;23.278;2023-08-12T09:28:11;95944.73;;;37.95;19.59
79203;BME280;68630;42.748;23.278;2023-08-12T09:30:39;95942.12;;;38.71;18.77
79203;BME280;68630;42.748;23.278;2023-08-12T09:33:08;95935.95;;;39.92;17.68
79203;BME280;68630;42.748;23.278;2023-08-12T09:35:41;95936.06;;;37.45;19.63
79203;BME280;68630;42.748;23.278;2023-08-12T09:38:13;95933.11;;;37.90;19.29
79203;BME280;68630;42.748;23.278;2023-08-12T09:40:41;95931.25;;;38.91;18.40
79203;BME280;68630;42.748;23.278;2023-08-12T09:43:09;95926.63;;;37.73;19.53
79203;BME280;68630;42.748;23.278;2023-08-12T09:45:38;95922.34;;;38.08;19.30
79203;BME280;68630;42.748;23.278;2023-08-12T09:48:06;95929.13;;;39.02;18.11
79203;BME280;68630;42.748;23.278;2023-08-12T09:50:36;95925.55;;;38.99;18.93
79203;BME280;68630;42.748;23.278;2023-08-12T09:53:04;95910.45;;;37.24;20.06
79203;BME280;68630;42.748;23.278;2023-08-12T09:55:32;95912.87;;;39.11;18.96
79203;BME280;68630;42.748;23.278;2023-08-12T09:58:01;95916.09;;;39.00;18.50
79203;BME280;68630;42.748;23.278;2023-08-12T10:00:30;95909.98;;;39.66;17.97
79203;BME280;68630;42.748;23.278;2023-08-12T10:02:59;95903.61;;;40.21;16.95
79203;BME280;68630;42.748;23.278;2023-08-12T10:05:29;95894.73;;;38.19;18.86
79203;BME280;68630;42.748;23.278;2023-08-12T10:07:58;95894.11;;;37.76;19.66
79203;BME280;68630;42.748;23.278;2023-08-12T10:10:28;95895.76;;;38.26;18.79
79203;BME280;68630;42.748;23.278;2023-08-12T10:12:56;95893.58;;;38.63;18.07
79203;BME280;68630;42.748;23.278;2023-08-12T10:15:24;95891.22;;;39.99;17.15
79203;BME280;68630;42.748;23.278;2023-08-12T10:17:52;95890.89;;;39.59;17.10
79203;BME280;68630;42.748;23.278;2023-08-12T10:20:24;95880.31;;;36.31;20.38
79203;BME280;68630;42.748;23.278;2023-08-12T10:22:52;95879.48;;;37.68;19.46
79203;BME280;68630;42.748;23.278;2023-08-12T10:25:21;95875.81;;;38.40;19.54
79203;BME280;68630;42.748;23.278;2023-08-12T10:27:49;95878.45;;;38.07;18.33
79203;BME280;68630;42.748;23.278;2023-08-12T10:30:16;95874.55;;;39.22;17.51
79203;BME280;68630;42.748;23.278;2023-08-12T10:32:45;95874.94;;;37.51;19.21
79203;BME280;68630;42.748;23.278;2023-08-12T10:35:14;95872.64;;;36.62;19.92
79203;BME280;68630;42.748;23.278;2023-08-12T10:37:41;95867.34;;;36.26;19.98
79203;BME280;68630;42.748;23.278;2023-08-12T10:40:20;95863.55;;;33.78;22.80
79203;BME280;68630;42.748;23.278;2023-08-12T10:42:46;95856.80;;;32.76;23.56
79203;BME280;68630;42.748;23.278;2023-08-12T10:45:10;95856.70;;;32.36;23.91
79203;BME280;68630;42.748;23.278;2023-08-12T10:47:42;95852.27;;;31.85;25.98
79203;BME280;68630;42.748;23.278;2023-08-12T10:50:18;95845.70;;;31.45;25.72
79203;BME280;68630;42.748;23.278;2023-08-12T10:52:46;95849.28;;;31.06;26.57
79203;BME280;68630;42.748;23.278;2023-08-12T10:55:24;95845.17;;;31.48;25.97
79203;BME280;68630;42.748;23.278;2023-08-12T10:57:54;95839.66;;;31.06;26.84
79203;BME280;68630;42.748;23.278;2023-08-12T11:00:25;95842.59;;;30.99;25.84
79203;BME280;68630;42.748;23.278;2023-08-12T11:02:55;95838.70;;;30.81;25.97
79203;BME280;68630;42.748;23.278;2023-08-12T11:05:24;95832.95;;;30.83;25.76
79203;BME280;68630;42.748;23.278;2023-08-12T11:07:59;95833.02;;;30.85;27.00
79203;BME280;68630;42.748;23.278;2023-08-12T11:10:31;95834.80;;;30.60;23.87
79203;BME280;68630;42.748;23.278;2023-08-12T11:12:59;95826.28;;;29.70;25.85
79203;BME280;68630;42.748;23.278;2023-08-12T11:15:40;95825.93;;;30.24;25.89
79203;BME280;68630;42.748;23.278;2023-08-12T11:18:09;95824.95;;;30.16;25.68
79203;BME280;68630;42.748;23.278;2023-08-12T11:20:37;95827.03;;;30.09;26.41
79203;BME280;68630;42.748;23.278;2023-08-12T11:23:06;95823.73;;;30.09;25.78
79203;BME280;68630;42.748;23.278;2023-08-12T11:25:36;95820.47;;;30.10;25.99
79203;BME280;68630;42.748;23.278;2023-08-12T11:28:05;95815.40;;;29.87;26.19
79203;BME280;68630;42.748;23.278;2023-08-12T11:30:34;95813.88;;;29.67;27.34
79203;BME280;68630;42.748;23.278;2023-08-12T11:33:01;95815.78;;;29.03;27.66
79203;BME280;68630;42.748;23.278;2023-08-12T11:35:29;95812.20;;;29.14;27.79
79203;BME280;68630;42.748;23.278;2023-08-12T11:37:58;95813.24;;;29.22;28.02
79203;BME280;68630;42.748;23.278;2023-08-12T11:40:27;95810.99;;;29.33;28.01
79203;BME280;68630;42.748;23.278;2023-08-12T11:42:55;95815.20;;;29.24;27.76
79203;BME280;68630;42.748;23.278;2023-08-12T11:45:24;95806.15;;;29.24;29.53
79203;BME280;68630;42.748;23.278;2023-08-12T11:47:52;95808.78;;;28.83;30.21
79203;BME280;68630;42.748;23.278;2023-08-12T11:50:23;95815.66;;;28.50;31.14
79203;BME280;68630;42.748;23.278;2023-08-12T11:52:56;95822.98;;;27.75;32.51
79203;BME280;68630;42.748;23.278;2023-08-12T11:55:20;95816.34;;;27.52;32.97
79203;BME280;68630;42.748;23.278;2023-08-12T11:57:49;95816.19;;;27.10;33.44
79203;BME280;68630;42.748;23.278;2023-08-12T12:00:18;95812.45;;;27.23;33.00
79203;BME280;68630;42.748;23.278;2023-08-12T12:02:55;95814.31;;;27.29;33.07
79203;BME280;68630;42.748;23.278;2023-08-12T12:05:28;95806.66;;;27.59;33.38
79203;BME280;68630;42.748;23.278;2023-08-12T12:08:00;95807.66;;;27.95;31.71
79203;BME280;68630;42.748;23.278;2023-08-12T12:10:32;95803.50;;;28.13;32.26
79203;BME280;68630;42.748;23.278;2023-08-12T12:13:02;95805.36;;;28.43;32.57
79203;BME280;68630;42.748;23.278;2023-08-12T12:15:30;95801.34;;;28.69;32.08
79203;BME280;68630;42.748;23.278;2023-08-12T12:17:58;95802.28;;;28.63;31.82
79203;BME280;68630;42.748;23.278;2023-08-12T12:20:26;95799.73;;;28.71;31.91
79203;BME280;68630;42.748;23.278;2023-08-12T12:22:55;95792.62;;;28.96;31.46
79203;BME280;68630;42.748;23.278;2023-08-12T12:25:23;95796.94;;;29.30;30.35
79203;BME280;68630;42.748;23.278;2023-08-12T12:27:52;95798.52;;;29.40;30.42
79203;BME280;68630;42.748;23.278;2023-08-12T12:30:20;95789.58;;;29.45;30.20
79203;BME280;68630;42.748;23.278;2023-08-12T12:32:48;95788.72;;;29.56;30.09
79203;BME280;68630;42.748;23.278;2023-08-12T12:35:15;95781.04;;;29.84;29.56
79203;BME280;68630;42.748;23.278;2023-08-12T12:37:46;95787.07;;;29.58;29.93
79203;BME280;68630;42.748;23.278;2023-08-12T12:40:13;95789.23;;;29.41;29.92
79203;BME280;68630;42.748;23.278;2023-08-12T12:42:41;95785.70;;;29.29;29.81
79203;BME280;68630;42.748;23.278;2023-08-12T12:45:09;95780.41;;;29.68;29.72
79203;BME280;68630;42.748;23.278;2023-08-12T12:47:36;95771.41;;;29.99;28.51
79203;BME280;68630;42.748;23.278;2023-08-12T12:50:05;95781.01;;;29.82;28.58
79203;BME280;68630;42.748;23.278;2023-08-12T12:52:32;95777.23;;;29.30;29.43
79203;BME280;68630;42.748;23.278;2023-08-12T12:55:00;95765.90;;;29.27;29.81
79203;BME280;68630;42.748;23.278;2023-08-12T12:57:29;95771.24;;;28.95;31.24
79203;BME280;68630;42.748;23.278;2023-08-12T12:59:57;95770.79;;;29.13;30.52
79203;BME280;68630;42.748;23.278;2023-08-12T13:02:24;95763.13;;;29.39;29.74
79203;BME280;68630;42.748;23.278;2023-08-12T13:04:52;95764.57;;;28.44;30.20